createdAt,value
2022-08-20T00:01:12.523Z,19.2
2022-08-20T00:03:44.620Z,19.2
2022-08-20T00:06:12.580Z,19.2
2022-08-20T00:16:12.665Z,19.2
2022-08-20T00:18:42.712Z,19.2
2022-08-20T00:21:12.720Z,19.1
2022-08-20T00:23:42.755Z,19.1
2022-08-20T00:26:12.757Z,19.1
2022-08-20T00:28:42.807Z,19.1
2022-08-20T00:33:42.856Z,19.1
2022-08-20T00:36:12.856Z,19.1
2022-08-20T00:38:42.897Z,19.1
2022-08-20T00:43:42.941Z,19.1
2022-08-20T00:46:12.959Z,19.1
2022-08-20T00:51:13.019Z,19.1
2022-08-20T00:53:43.088Z,19.1
2022-08-20T00:56:13.051Z,19.1
2022-08-20T01:01:13.109Z,19.1
2022-08-20T01:03:43.120Z,19
2022-08-20T01:06:13.141Z,19.1
2022-08-20T01:08:43.188Z,19.1
2022-08-20T01:11:13.219Z,19.1
2022-08-20T01:16:13.254Z,19
2022-08-20T01:18:43.261Z,19.1
2022-08-20T01:21:13.288Z,19.1
2022-08-20T01:26:13.351Z,19.1
2022-08-20T01:28:43.359Z,19.1
2022-08-20T01:31:13.411Z,19.1
2022-08-20T01:33:44.168Z,19.1
2022-08-20T01:36:13.434Z,19.1
2022-08-20T01:41:13.484Z,19.1
2022-08-20T01:43:43.502Z,19
2022-08-20T01:51:13.566Z,18.79
2022-08-20T01:53:43.609Z,18.79
2022-08-20T01:56:13.641Z,18.7
2022-08-20T01:58:43.649Z,18.7
2022-08-20T02:01:13.736Z,18.7
2022-08-20T02:03:44.787Z,18.6
2022-08-20T02:06:13.729Z,18.6
2022-08-20T02:11:13.780Z,18.7
2022-08-20T02:13:43.800Z,18.6
2022-08-20T02:18:43.828Z,18.6
2022-08-20T02:21:13.891Z,18.6
2022-08-20T02:23:43.888Z,18.7
2022-08-20T02:31:13.970Z,18.6
2022-08-20T02:33:43.971Z,18.6
2022-08-20T02:36:14.012Z,18.7
2022-08-20T02:41:14.059Z,18.5
2022-08-20T02:43:44.083Z,18.5
2022-08-20T02:48:44.135Z,18.6
2022-08-20T02:53:44.177Z,18.6
2022-08-20T02:56:14.182Z,18.6
2022-08-20T02:58:44.233Z,18.6
2022-08-20T03:01:14.260Z,18.6
2022-08-20T03:03:44.266Z,18.6
2022-08-20T03:06:14.294Z,18.5
2022-08-20T03:08:44.318Z,18.5
2022-08-20T03:11:14.345Z,18.4
2022-08-20T03:13:44.360Z,18.4
2022-08-20T03:16:14.388Z,18.4
2022-08-20T03:18:44.408Z,18.4
2022-08-20T03:21:14.721Z,18.29
2022-08-20T03:23:44.468Z,18.29
2022-08-20T03:31:14.789Z,18.4
2022-08-20T03:33:48.886Z,18.4
2022-08-20T03:36:14.583Z,18.4
2022-08-20T03:38:44.603Z,18.5
2022-08-20T03:41:14.623Z,18.4
2022-08-20T03:43:44.671Z,18.4
2022-08-20T03:46:23.610Z,18.4
2022-08-20T03:48:44.862Z,18.4
2022-08-20T03:51:14.699Z,18.4
2022-08-20T03:53:44.734Z,18.4
2022-08-20T03:56:14.769Z,18.4
2022-08-20T03:58:44.791Z,18.4
2022-08-20T04:01:45.647Z,18.4
2022-08-20T04:03:44.828Z,18.4
2022-08-20T04:06:14.861Z,18.4
2022-08-20T04:11:14.915Z,18.29
2022-08-20T04:16:15.266Z,18.29
2022-08-20T04:19:01.617Z,18.2
2022-08-20T04:21:15.045Z,18.2
2022-08-20T04:23:45.022Z,18.1
2022-08-20T04:26:15.047Z,18
2022-08-20T04:28:45.063Z,18
2022-08-20T04:31:15.077Z,18
2022-08-20T04:33:45.101Z,18
2022-08-20T04:41:22.884Z,18.1
2022-08-20T04:43:45.203Z,18
2022-08-20T04:46:15.217Z,18
2022-08-20T04:48:49.194Z,17.9
2022-08-20T04:53:52.117Z,17.9
2022-08-20T04:56:15.311Z,18
2022-08-20T05:01:15.442Z,18
2022-08-20T05:03:45.382Z,17.9
2022-08-20T05:06:15.401Z,18
2022-08-20T05:08:45.483Z,17.9
2022-08-20T05:11:34.559Z,18
2022-08-20T05:13:45.489Z,18
2022-08-20T05:16:15.504Z,18
2022-08-20T05:18:45.539Z,18
2022-08-20T05:21:15.691Z,18
2022-08-20T05:23:45.584Z,18
2022-08-20T05:28:52.796Z,18
2022-08-20T05:31:15.664Z,17.9
2022-08-20T05:33:45.671Z,18
2022-08-20T05:36:15.689Z,18
2022-08-20T05:38:49.693Z,18
2022-08-20T05:41:29.436Z,18.1
2022-08-20T05:43:45.775Z,18.2
2022-08-20T05:46:15.976Z,18.2
2022-08-20T05:51:15.830Z,18.2
2022-08-20T05:56:15.879Z,18.2
2022-08-20T06:01:15.994Z,18.2
2022-08-20T06:03:45.958Z,18.2
2022-08-20T06:06:18.300Z,18.2
2022-08-20T06:08:46.020Z,18.2
2022-08-20T06:11:16.016Z,18.1
2022-08-20T06:13:46.062Z,18.1
2022-08-20T06:16:16.073Z,18.1
2022-08-20T06:18:46.117Z,18.1
2022-08-20T06:21:16.144Z,18.1
2022-08-20T06:23:58.042Z,18.29
2022-08-20T06:28:46.196Z,18.29
2022-08-20T06:31:16.248Z,18.29
2022-08-20T06:33:46.243Z,18.29
2022-08-20T06:36:18.004Z,18.29
2022-08-20T06:41:16.308Z,18.29
2022-08-20T06:43:46.319Z,18.4
2022-08-20T06:46:16.382Z,18.6
2022-08-20T06:48:46.368Z,18.6
2022-08-20T06:53:46.430Z,18.79
2022-08-20T06:58:46.478Z,19
2022-08-20T07:01:16.570Z,19.2
2022-08-20T07:03:55.779Z,19.29
2022-08-20T07:06:16.532Z,19.5
2022-08-20T07:08:46.567Z,19.5
2022-08-20T07:11:16.594Z,19.4
2022-08-20T07:13:46.636Z,19.4
2022-08-20T07:16:16.639Z,19.29
2022-08-20T07:18:46.676Z,19.29
2022-08-20T07:21:16.668Z,19.2
2022-08-20T07:23:46.721Z,19.2
2022-08-20T07:26:16.749Z,19.1
2022-08-20T07:28:46.741Z,19.1
2022-08-20T07:31:16.770Z,19
2022-08-20T07:33:46.790Z,19.1
2022-08-20T07:38:46.856Z,19.2
2022-08-20T07:41:16.855Z,19.29
2022-08-20T07:46:16.911Z,19.29
2022-08-20T07:48:47.113Z,19.2
2022-08-20T07:51:16.973Z,19.2
2022-08-20T07:53:46.983Z,19.2
2022-08-20T07:56:17.022Z,19.29
2022-08-20T07:58:47.044Z,19.4
2022-08-20T08:01:17.114Z,19.29
2022-08-20T08:03:50.098Z,19.4
2022-08-20T08:06:19.675Z,19.5
2022-08-20T08:08:47.127Z,19.5
2022-08-20T08:11:17.144Z,19.5
2022-08-20T08:16:17.201Z,19.6
2022-08-20T08:18:47.220Z,19.6
2022-08-20T08:21:17.272Z,19.6
2022-08-20T08:23:47.263Z,19.7
2022-08-20T08:28:47.311Z,19.79
2022-08-20T08:33:47.391Z,19.79
2022-08-20T08:38:47.417Z,19.7
2022-08-20T08:43:47.468Z,19.9
2022-08-20T08:48:47.513Z,19.9
2022-08-20T08:51:17.527Z,19.9
2022-08-20T08:53:47.558Z,19.9
2022-08-20T08:56:17.571Z,19.9
2022-08-20T08:58:47.613Z,20
2022-08-20T09:01:54.211Z,20.1
2022-08-20T09:03:47.647Z,20.1
2022-08-20T09:06:17.669Z,20.2
2022-08-20T09:08:47.689Z,20.29
2022-08-20T09:11:17.723Z,20.29
2022-08-20T09:13:47.758Z,20.29
2022-08-20T09:23:47.832Z,20.7
2022-08-20T09:26:17.869Z,20.9
2022-08-20T09:28:52.119Z,21
2022-08-20T09:33:47.950Z,21.3
2022-08-20T09:36:31.719Z,21.5
2022-08-20T09:38:48.002Z,21.9
2022-08-20T09:41:17.999Z,21.9
2022-08-20T09:43:48.033Z,21.9
2022-08-20T09:46:18.056Z,21.9
2022-08-20T09:51:18.097Z,21.6
2022-08-20T09:56:18.136Z,21.3
2022-08-20T09:58:48.173Z,21.2
2022-08-20T10:06:18.236Z,21
2022-08-20T10:08:48.262Z,21.3
2022-08-20T10:11:18.290Z,21.5
2022-08-20T10:13:48.303Z,21.8
2022-08-20T10:18:48.339Z,22.3
2022-08-20T10:21:18.358Z,22.5
2022-08-20T10:23:48.392Z,22.6
2022-08-20T10:26:18.431Z,22.3
2022-08-20T10:36:18.501Z,21.8
2022-08-20T10:38:48.631Z,21.8
2022-08-20T10:43:48.576Z,22.2
2022-08-20T10:48:48.633Z,22.5
2022-08-20T10:53:48.698Z,22.9
2022-08-20T10:56:18.704Z,23.2
2022-08-20T10:58:48.711Z,23.3
2022-08-20T11:03:48.768Z,23.4
2022-08-20T11:06:18.793Z,23.5
2022-08-20T11:08:48.829Z,23.5
2022-08-20T11:13:48.888Z,23.3
2022-08-20T11:16:18.886Z,23.3
2022-08-20T11:18:48.920Z,23.1
2022-08-20T11:26:18.966Z,23.3
2022-08-20T11:31:19.020Z,23.4
2022-08-20T11:33:49.060Z,23.1
2022-08-20T11:36:19.076Z,23.1
2022-08-20T11:46:19.175Z,23.5
2022-08-20T11:48:49.223Z,23.6
2022-08-20T11:51:19.224Z,23.5
2022-08-20T11:53:49.248Z,23.2
2022-08-20T11:56:19.249Z,22.9
2022-08-20T11:58:49.269Z,22.7
2022-08-20T12:03:49.329Z,23.1
2022-08-20T12:06:19.348Z,23.5
2022-08-20T12:08:49.389Z,23.7
2022-08-20T12:11:19.400Z,23.8
2022-08-20T12:16:19.455Z,24.3
2022-08-20T12:18:49.482Z,24.3
2022-08-20T12:23:49.536Z,24.3
2022-08-20T12:26:19.537Z,24.2
2022-08-20T12:28:49.583Z,23.9
2022-08-20T12:31:19.591Z,23.8
2022-08-20T12:33:49.611Z,23.9
2022-08-20T12:36:19.650Z,24
2022-08-20T12:38:49.665Z,24
2022-08-20T12:43:49.776Z,24.2
2022-08-20T12:46:20.131Z,23.9
2022-08-20T12:48:49.765Z,23.9
2022-08-20T12:53:49.812Z,24.2
2022-08-20T12:56:19.818Z,24.4
2022-08-20T12:58:49.849Z,24.5
2022-08-20T13:01:19.941Z,24.7
2022-08-20T13:06:19.921Z,24.4
2022-08-20T13:13:52.048Z,24.3
2022-08-20T13:16:20.007Z,24.7
2022-08-20T13:21:23.421Z,24.9
2022-08-20T13:23:50.090Z,25
2022-08-20T13:26:20.104Z,25.5
2022-08-20T13:41:20.400Z,26.4
2022-08-20T13:43:50.300Z,25.7
2022-08-20T13:46:20.300Z,25.2
2022-08-20T13:48:50.314Z,25.1
2022-08-20T13:53:50.375Z,25.5
2022-08-20T13:56:20.397Z,25.7
2022-08-20T13:58:50.418Z,25.9
2022-08-20T14:03:50.460Z,27.6
2022-08-20T14:06:20.471Z,28.3
2022-08-20T14:08:50.502Z,28.3
2022-08-20T14:11:20.522Z,27.4
2022-08-20T14:18:52.869Z,26.3
2022-08-20T14:21:20.613Z,26.2
2022-08-20T14:28:50.699Z,26.8
2022-08-20T14:31:20.715Z,27.4
2022-08-20T14:33:50.742Z,27.1
2022-08-20T14:36:20.764Z,26.7
2022-08-20T14:38:50.782Z,26.6
2022-08-20T14:41:20.807Z,26.6
2022-08-20T14:46:20.884Z,25.8
2022-08-20T14:56:20.947Z,25.8
2022-08-20T14:58:50.984Z,26.1
2022-08-20T15:01:21.061Z,26.9
2022-08-20T15:06:21.913Z,30.9
2022-08-20T15:08:51.074Z,32.9
2022-08-20T15:11:21.105Z,32.9
2022-08-20T15:13:51.133Z,32.4
2022-08-20T15:16:21.150Z,33.2
2022-08-20T15:18:51.177Z,34.4
2022-08-20T15:21:21.983Z,35.09
2022-08-20T15:23:51.226Z,32.7
2022-08-20T15:26:21.251Z,31.1
2022-08-20T15:28:51.285Z,29.8
2022-08-20T15:31:21.312Z,28.6
2022-08-20T15:33:51.322Z,27.8
2022-08-20T15:36:21.344Z,28
2022-08-20T15:41:21.384Z,32.7
2022-08-20T15:43:51.410Z,34.59
2022-08-20T15:46:21.442Z,35.4
2022-08-20T15:48:51.469Z,36.4
2022-08-20T15:51:21.475Z,35.59
2022-08-20T15:53:51.521Z,36.8
2022-08-20T15:56:21.547Z,37.3
2022-08-20T15:58:51.553Z,37.5
2022-08-20T16:01:25.185Z,36.5
2022-08-20T16:03:51.625Z,34
2022-08-20T16:06:21.625Z,31.6
2022-08-20T16:08:51.678Z,31.4
2022-08-20T16:11:21.705Z,31.8
2022-08-20T16:16:21.732Z,31.8
2022-08-20T16:18:51.746Z,34.7
2022-08-20T16:21:21.792Z,32.2
2022-08-20T16:23:51.802Z,29.5
2022-08-20T16:26:21.835Z,28.4
2022-08-20T16:28:51.843Z,27.6
2022-08-20T16:31:21.930Z,27.7
2022-08-20T16:33:51.896Z,28
2022-08-20T16:36:21.936Z,30.2
2022-08-20T16:38:51.943Z,31.5
2022-08-20T16:41:21.986Z,32.7
2022-08-20T16:43:52.009Z,33.2
2022-08-20T16:46:22.031Z,31.3
2022-08-20T16:48:52.066Z,29.6
2022-08-20T16:51:22.077Z,29.6
2022-08-20T16:56:22.117Z,26.7
2022-08-20T16:58:52.140Z,26.4
2022-08-20T17:01:22.258Z,26.7
2022-08-20T17:03:52.212Z,26.3
2022-08-20T17:08:52.247Z,25.6
2022-08-20T17:11:22.279Z,26.1
2022-08-20T17:13:52.301Z,26.6
2022-08-20T17:16:22.311Z,28.3
2022-08-20T17:18:52.340Z,30.2
2022-08-20T17:21:22.379Z,31.1
2022-08-20T17:23:56.384Z,31
2022-08-20T17:26:22.427Z,30.3
2022-08-20T17:28:52.437Z,28.8
2022-08-20T17:31:22.475Z,27.6
2022-08-20T17:33:52.504Z,26.5
2022-08-20T17:36:22.517Z,25.7
2022-08-20T17:38:52.536Z,25.3
2022-08-20T17:41:22.569Z,24.9
2022-08-20T17:43:52.597Z,24.5
2022-08-20T17:48:52.638Z,24.4
2022-08-20T17:51:22.675Z,24.2
2022-08-20T17:53:52.687Z,24
2022-08-20T17:56:22.717Z,23.9
2022-08-20T17:58:54.872Z,23.6
2022-08-20T18:01:22.853Z,23.6
2022-08-20T18:03:52.808Z,23.6
2022-08-20T18:06:25.323Z,23.5
2022-08-20T18:08:52.843Z,23.3
2022-08-20T18:11:22.883Z,23.2
2022-08-20T18:13:52.890Z,23.1
2022-08-20T18:16:22.907Z,23
2022-08-20T18:18:57.090Z,22.9
2022-08-20T18:21:22.938Z,22.8
2022-08-20T18:23:52.985Z,22.6
2022-08-20T18:26:23.005Z,22.5
2022-08-20T18:28:53.034Z,22.5
2022-08-20T18:31:23.111Z,22.4
2022-08-20T18:33:53.101Z,22.3
2022-08-20T18:36:23.132Z,22.1
2022-08-20T18:38:53.128Z,22
2022-08-20T18:41:23.131Z,22
2022-08-20T18:43:53.173Z,21.8
2022-08-20T18:46:23.540Z,21.7
2022-08-20T18:48:53.219Z,21.7
2022-08-20T18:53:53.274Z,21.4
2022-08-20T18:56:23.298Z,21.2
2022-08-20T18:58:53.301Z,21.3
2022-08-20T19:01:23.438Z,21.2
2022-08-20T19:03:53.365Z,21.2
2022-08-20T19:06:23.396Z,20.9
2022-08-20T19:08:53.417Z,21
2022-08-20T19:11:23.420Z,20.9
2022-08-20T19:16:23.489Z,20.6
2022-08-20T19:18:53.500Z,20.5
2022-08-20T19:21:23.544Z,20.4
2022-08-20T19:23:53.544Z,20.29
2022-08-20T19:26:25.235Z,20.2
2022-08-20T19:28:53.590Z,20.1
2022-08-20T19:36:24.270Z,20
2022-08-20T19:38:53.684Z,19.9
2022-08-20T19:41:30.961Z,19.79
2022-08-20T19:46:23.777Z,19.7
2022-08-20T19:51:23.813Z,19.6
2022-08-20T19:53:53.827Z,19.5
2022-08-20T19:56:23.859Z,19.5
2022-08-20T19:58:53.893Z,19.4
2022-08-20T20:01:23.925Z,19.4
2022-08-20T20:03:53.947Z,19.29
2022-08-20T20:06:23.964Z,19.29
2022-08-20T20:08:53.985Z,19.29
2022-08-20T20:11:24.001Z,19.29
2022-08-20T20:16:24.056Z,19.2
2022-08-20T20:19:15.555Z,19.1
2022-08-20T20:21:24.110Z,19.1
2022-08-20T20:23:54.118Z,19
2022-08-20T20:26:24.153Z,18.9
2022-08-20T20:36:24.228Z,19
2022-08-20T20:38:54.255Z,18.79
2022-08-20T20:41:24.299Z,18.7
2022-08-20T20:43:54.316Z,18.7
2022-08-20T20:46:24.344Z,18.7
2022-08-20T20:48:54.356Z,18.6
2022-08-20T20:51:24.386Z,18.6
2022-08-20T20:58:55.820Z,18.29
2022-08-20T21:08:54.563Z,18.2
2022-08-20T21:11:24.579Z,18
2022-08-20T21:16:24.615Z,17.9
2022-08-20T21:18:54.652Z,17.9
2022-08-20T21:21:24.674Z,18
2022-08-20T21:23:54.677Z,18.1
2022-08-20T21:26:24.710Z,18
2022-08-20T21:28:54.726Z,18
2022-08-20T21:31:24.766Z,17.9
2022-08-20T21:33:54.788Z,18
2022-08-20T21:36:24.807Z,17.9
2022-08-20T21:38:54.830Z,17.79
2022-08-20T21:41:29.466Z,17.7
2022-08-20T21:43:54.885Z,17.7
2022-08-20T21:51:24.953Z,17.5
2022-08-20T21:56:25.004Z,17.6
2022-08-20T22:01:25.093Z,17.5
2022-08-20T22:03:55.064Z,17.5
2022-08-20T22:06:25.067Z,17.4
2022-08-20T22:08:55.103Z,17.29
2022-08-20T22:11:25.121Z,17.29
2022-08-20T22:16:25.174Z,17.2
2022-08-20T22:18:55.188Z,17.1
2022-08-20T22:21:25.225Z,17.1
2022-08-20T22:23:55.254Z,17.1
2022-08-20T22:28:55.285Z,17
2022-08-20T22:31:25.309Z,17
2022-08-20T22:41:25.423Z,16.79
2022-08-20T22:43:55.942Z,16.7
2022-08-20T22:46:26.847Z,16.7
2022-08-20T22:53:55.681Z,16.6
2022-08-20T22:58:55.571Z,16.4
2022-08-20T23:01:25.746Z,16.4
2022-08-20T23:06:25.659Z,16.2
2022-08-20T23:08:55.673Z,16.2
2022-08-20T23:11:26.404Z,16.1
2022-08-20T23:18:55.764Z,16.1
2022-08-20T23:23:55.813Z,16
2022-08-20T23:26:25.853Z,15.9
2022-08-20T23:28:55.868Z,15.8
2022-08-20T23:31:25.876Z,15.8
2022-08-20T23:36:25.937Z,15.9
2022-08-20T23:38:55.955Z,15.9
2022-08-20T23:41:25.977Z,15.9
2022-08-20T23:43:56.021Z,15.9
2022-08-20T23:51:26.091Z,15.7
2022-08-20T23:53:56.102Z,15.8
2022-08-20T23:58:56.149Z,15.7
